Time;durP1;ratioP1;P1;durP2;ratioP2;P2;SDS_P1;SDS_P2;PMS_P1;PMS_P2;Temp;Humidity;BMP_temperature;BMP_pressure;BME280_temperature;BME280_humidity;BME280_pressure;Samples;Min_cycle;Max_cycle;Signal;HPM_P1;HPM_P2
2022/08/13 00:02:14;;;;;;;2.03;1.23;;;25.40;38.50;;;-142.21;33.92;112049.66;5036844;28;20289;-72
2022/08/13 00:04:44;;;;;;;1.30;1.20;;;25.30;38.50;;;-142.21;34.10;112049.66;5045334;28;20314;-71
2022/08/13 00:07:12;;;;;;;1.43;1.20;;;25.30;38.80;;;-142.21;34.29;112049.66;5044924;28;20242;-71
2022/08/13 00:09:43;;;;;;;2.67;1.30;;;25.20;38.90;;;-142.21;34.24;112049.66;5044954;28;20206;-72
2022/08/13 00:15:08;;;;;;;1.77;1.23;;;25.20;39.10;;;-142.21;34.30;112049.66;5051797;28;20574;-73
2022/08/13 00:17:37;;;;;;;1.57;1.47;;;25.20;39.20;;;-142.21;34.48;112049.66;5020127;28;20235;-72
2022/08/13 00:20:08;;;;;;;2.10;1.23;;;25.10;39.20;;;-142.21;34.64;112049.66;5054369;28;20205;-71
2022/08/13 00:22:37;;;;;;;1.60;1.47;;;25.10;39.20;;;-142.21;34.45;112049.66;5054377;28;20276;-71
2022/08/13 00:25:11;;;;;;;1.80;1.40;;;25.10;39.40;;;-142.21;34.69;112049.66;5054137;28;20670;-71
2022/08/13 00:27:38;;;;;;;2.97;1.03;;;25.00;39.70;;;-142.21;34.81;112049.66;5050899;28;20685;-72
2022/08/13 00:30:11;;;;;;;1.27;1.07;;;25.00;39.70;;;-142.21;34.92;112049.66;5044296;28;20619;-71
2022/08/13 00:32:38;;;;;;;2.13;1.40;;;25.00;39.80;;;-142.21;35.05;112049.66;5042075;28;20194;-71
2022/08/13 00:35:07;;;;;;;2.60;1.33;;;25.00;39.90;;;-142.21;35.08;112049.66;5049945;28;20289;-70
2022/08/13 00:37:37;;;;;;;1.80;1.27;;;25.00;40.00;;;-142.21;34.73;112049.66;5053343;28;20577;-71
2022/08/13 00:40:06;;;;;;;1.30;1.20;;;24.90;40.20;;;-142.21;34.70;112049.66;5052272;28;20194;-74
2022/08/13 00:42:34;;;;;;;1.27;1.17;;;24.90;39.60;;;-142.21;34.93;112049.66;5041777;28;20244;-71
2022/08/13 00:45:01;;;;;;;1.50;1.40;;;24.90;40.00;;;-142.21;35.30;112049.66;5038421;28;20814;-72
2022/08/13 00:50:14;;;;;;;1.10;1.00;;;24.80;40.40;;;-142.21;35.49;112049.66;5033733;28;20189;-71
2022/08/13 00:52:42;;;;;;;2.07;1.30;;;24.70;40.30;;;-142.21;35.63;112049.66;5052322;28;20205;-72
2022/08/13 00:55:17;;;;;;;1.40;1.30;;;24.70;40.60;;;-142.21;35.60;112049.66;5052981;28;20728;-72
2022/08/13 00:57:46;;;;;;;2.07;1.57;;;24.60;40.60;;;-142.21;35.84;112049.66;5039645;28;20213;-72
2022/08/13 01:00:19;;;;;;;1.20;1.10;;;24.50;40.70;;;-142.21;36.09;112049.66;5041317;28;20209;-71
2022/08/13 01:02:50;;;;;;;1.30;1.20;;;24.50;41.00;;;-142.21;36.10;112049.66;5047613;28;20289;-71
2022/08/13 01:05:19;;;;;;;1.60;1.50;;;24.40;41.10;;;-142.21;36.35;112049.66;5039355;28;20785;-71
2022/08/13 01:07:52;;;;;;;2.83;1.60;;;24.30;41.30;;;-142.21;36.45;112049.66;5034193;28;20199;-72
2022/08/13 01:10:20;;;;;;;1.50;1.40;;;24.30;41.40;;;-142.21;36.69;112049.66;5043076;28;20281;-72
2022/08/13 01:12:52;;;;;;;1.57;1.30;;;24.10;41.50;;;-142.21;36.79;112049.66;5051102;28;20206;-71
2022/08/13 01:15:23;;;;;;;1.73;1.37;;;24.10;41.70;;;-142.21;36.81;112049.66;5052427;28;20209;-71
2022/08/13 01:17:53;;;;;;;1.53;1.23;;;24.10;41.80;;;-142.21;36.90;112049.66;5040141;28;20222;-71
2022/08/13 01:20:22;;;;;;;1.40;1.30;;;24.00;41.80;;;-142.21;37.06;112049.66;5043236;28;20206;-72
2022/08/13 01:22:55;;;;;;;1.20;1.10;;;23.90;41.90;;;-142.21;37.38;112049.66;5044354;28;20260;-71
2022/08/13 01:25:25;;;;;;;2.27;1.40;;;23.80;42.10;;;-142.21;37.46;112049.66;5050562;28;20653;-70
2022/08/13 01:27:54;;;;;;;1.30;1.20;;;23.80;42.20;;;-142.21;37.57;112049.66;5050677;28;20293;-73
2022/08/13 01:30:26;;;;;;;1.40;1.30;;;23.70;42.20;;;-142.21;37.42;112049.66;5038806;28;20635;-71
2022/08/13 01:32:55;;;;;;;2.73;1.50;;;23.60;42.30;;;-142.21;37.41;112049.66;5048737;28;20219;-72
2022/08/13 01:35:25;;;;;;;2.43;1.40;;;23.50;42.10;;;-142.21;37.69;112049.66;5036440;28;20336;-72
2022/08/13 01:37:54;;;;;;;1.80;1.70;;;23.50;42.50;;;-142.21;37.82;112049.66;5052495;28;20217;-71
2022/08/13 01:40:22;;;;;;;1.40;1.30;;;23.40;42.60;;;-142.21;37.95;112049.66;5011591;28;20206;-72
2022/08/13 01:42:51;;;;;;;2.47;1.40;;;23.30;42.70;;;-142.21;38.18;112049.66;5053208;28;20205;-72
2022/08/13 01:45:19;;;;;;;1.50;1.40;;;23.30;42.90;;;-142.21;38.25;112049.66;5048720;28;20310;-72
2022/08/13 01:50:33;;;;;;;1.40;1.30;;;23.20;43.10;;;-142.21;38.43;112049.66;5036393;28;20252;-71
2022/08/13 01:53:09;;;;;;;1.40;1.30;;;23.10;43.30;;;-142.21;38.62;112049.66;5036832;28;20213;-71
2022/08/13 01:55:39;;;;;;;2.00;1.70;;;23.10;43.10;;;-142.21;38.51;112049.66;5046955;28;20720;-71
2022/08/13 01:58:12;;;;;;;1.97;1.67;;;23.10;43.30;;;-142.21;38.50;112049.66;5036746;28;20694;-71
2022/08/13 02:00:45;;;;;;;1.30;1.20;;;23.10;43.00;;;-142.21;38.82;112049.66;5041704;28;20254;-71
2022/08/13 02:03:13;;;;;;;1.90;1.50;;;23.10;43.70;;;-142.21;38.88;112049.66;5044531;28;20208;-71
2022/08/13 02:05:41;;;;;;;3.77;1.50;;;23.10;43.80;;;-142.21;38.89;112049.66;5039785;28;20288;-72
2022/08/13 02:08:13;;;;;;;2.23;1.30;;;23.00;43.90;;;-142.21;38.99;112049.66;5046689;28;20682;-72
2022/08/13 02:10:44;;;;;;;2.40;1.60;;;23.00;43.90;;;-142.21;39.05;112049.66;5050105;28;20289;-72
2022/08/13 02:13:15;;;;;;;1.30;1.20;;;23.00;44.00;;;-142.21;39.02;112049.66;5047250;28;20204;-71
2022/08/13 02:15:45;;;;;;;1.57;1.47;;;23.00;44.10;;;-142.21;39.22;112049.66;5034867;28;20289;-72
2022/08/13 02:18:17;;;;;;;1.50;1.37;;;22.90;44.30;;;-142.21;39.55;112049.66;5051834;28;20253;-72
2022/08/13 02:20:46;;;;;;;1.50;1.40;;;22.90;44.30;;;-142.21;39.37;112049.66;5035883;28;20229;-71
2022/08/13 02:23:21;;;;;;;1.70;1.30;;;22.80;44.30;;;-142.21;39.55;112049.66;5052149;28;20326;-71
2022/08/13 02:25:50;;;;;;;1.40;1.30;;;22.80;44.50;;;-142.21;39.60;112049.66;5049564;28;20284;-71
2022/08/13 02:28:20;;;;;;;1.53;1.10;;;22.70;44.50;;;-142.21;39.75;112049.66;5050070;28;20363;-72
2022/08/13 02:30:48;;;;;;;3.13;1.50;;;22.70;44.60;;;-142.21;39.85;112049.66;5045339;28;20205;-72
2022/08/13 02:33:16;;;;;;;1.70;1.30;;;22.60;44.60;;;-142.21;40.16;112049.66;5042599;28;20292;-72
2022/08/13 02:35:45;;;;;;;1.37;1.27;;;22.60;45.50;;;-142.21;39.94;112049.66;5047963;28;20310;-71
2022/08/13 02:38:13;;;;;;;1.40;1.30;;;22.60;44.70;;;-142.21;40.51;112049.66;5052788;28;20226;-73
2022/08/13 02:43:28;;;;;;;1.80;1.37;;;22.50;45.10;;;-142.21;40.90;112049.66;5052289;28;20267;-72
2022/08/13 02:45:57;;;;;;;1.67;1.50;;;22.40;45.30;;;-142.21;40.91;112049.66;5050999;28;20233;-72
2022/08/13 02:48:26;;;;;;;1.70;1.60;;;22.30;45.20;;;-142.21;40.98;112049.66;5037714;28;20220;-71
2022/08/13 02:50:55;;;;;;;1.63;1.53;;;22.30;46.00;;;-142.21;41.16;112049.66;5049491;28;20565;-72
2022/08/13 02:53:25;;;;;;;1.83;1.63;;;22.20;45.50;;;-142.21;41.21;112049.66;5046454;28;20232;-71
2022/08/13 02:55:54;;;;;;;1.83;1.63;;;22.10;45.50;;;-142.21;41.51;112049.66;5070894;28;20204;-73
2022/08/13 02:58:21;;;;;;;1.60;1.50;;;22.10;45.70;;;-142.21;41.53;112049.66;5070240;28;20221;-71
2022/08/13 03:00:48;;;;;;;1.50;1.40;;;22.00;45.70;;;-142.21;41.74;112049.66;5048599;28;20204;-71
2022/08/13 03:03:17;;;;;;;2.33;1.40;;;21.90;45.90;;;-142.21;41.82;112049.66;5049072;28;20210;-71
2022/08/13 03:05:46;;;;;;;1.10;1.10;;;21.90;45.80;;;-142.21;41.67;112049.66;5046550;28;20201;-72
2022/08/13 03:08:14;;;;;;;1.83;1.63;;;21.90;45.70;;;-142.21;42.46;112049.66;5043368;28;20232;-72
2022/08/13 03:10:42;;;;;;;1.90;1.57;;;21.90;46.90;;;-142.21;42.08;112049.66;5049755;28;20210;-72
2022/08/13 03:13:17;;;;;;;1.97;1.63;;;21.80;46.30;;;-142.21;42.05;112049.66;5050778;28;20206;-71
2022/08/13 03:15:50;;;;;;;2.10;1.90;;;21.80;46.30;;;-142.21;42.67;112049.66;5050536;28;20221;-71
2022/08/13 03:18:17;;;;;;;1.50;1.40;;;21.80;46.30;;;-142.21;42.92;112049.66;5045377;28;20206;-71
2022/08/13 03:20:45;;;;;;;1.80;1.70;;;21.80;46.70;;;-142.21;42.79;112049.66;5045836;28;20202;-71
2022/08/13 03:23:12;;;;;;;1.60;1.50;;;21.80;46.60;;;-142.21;42.98;112049.66;5039333;28;20206;-72
2022/08/13 03:25:40;;;;;;;1.60;1.50;;;21.80;46.80;;;-142.21;43.37;112049.66;5039702;28;20206;-72
2022/08/13 03:28:07;;;;;;;1.40;1.30;;;21.70;46.90;;;-142.21;43.81;112049.66;5045477;28;20205;-72
2022/08/13 03:30:37;;;;;;;1.90;1.63;;;21.70;47.20;;;-142.21;44.28;112049.66;5039740;28;20293;-73
2022/08/13 03:33:11;;;;;;;1.73;1.53;;;21.60;47.20;;;-142.21;44.24;112049.66;5050861;28;20201;-72
2022/08/13 03:35:39;;;;;;;1.70;1.60;;;21.60;47.60;;;-142.21;44.62;112049.66;5049692;28;20232;-72
2022/08/13 03:38:10;;;;;;;1.90;1.80;;;21.60;47.70;;;-142.21;45.11;112049.66;5050732;28;20225;-72
2022/08/13 03:43:20;;;;;;;1.70;1.60;;;21.50;47.90;;;-142.21;45.36;112049.66;5033081;28;20233;-72
2022/08/13 03:45:50;;;;;;;1.60;1.50;;;21.40;47.90;;;-142.21;45.71;112049.66;5044664;28;20328;-72
2022/08/13 03:48:18;;;;;;;2.23;1.70;;;21.40;48.10;;;-142.21;45.68;112049.66;5032814;28;20722;-71
2022/08/13 03:50:48;;;;;;;1.83;1.70;;;21.30;48.20;;;-142.21;46.21;112049.66;5042191;28;20250;-71
2022/08/13 03:53:20;;;;;;;1.97;1.80;;;21.30;48.40;;;-142.21;46.00;112049.66;5049866;28;20206;-71
2022/08/13 03:55:48;;;;;;;1.50;1.40;;;21.30;48.50;;;-142.21;46.31;112049.66;5049856;28;20218;-70
2022/08/13 03:58:18;;;;;;;1.70;1.60;;;21.30;48.60;;;-142.21;46.37;112049.66;5040141;28;20225;-72
2022/08/13 04:00:49;;;;;;;1.70;1.60;;;21.20;48.60;;;-142.21;46.81;112049.66;5060265;28;20279;-71
2022/08/13 04:03:22;;;;;;;1.63;1.50;;;21.20;48.70;;;-142.21;46.68;112049.66;5043213;28;20288;-73
2022/08/13 04:05:52;;;;;;;2.00;1.40;;;21.20;48.70;;;-142.21;46.91;112049.66;5043605;28;20284;-72
2022/08/13 04:08:22;;;;;;;3.27;1.67;;;21.20;49.40;;;-142.21;47.62;112049.66;5043384;28;20232;-72
2022/08/13 04:10:50;;;;;;;4.27;1.70;;;21.10;49.10;;;-142.21;49.21;112049.66;5050330;28;20199;-72
2022/08/13 04:13:20;;;;;;;3.40;1.80;;;21.10;49.70;;;-142.21;48.94;112049.66;5048710;28;20261;-72
2022/08/13 04:15:50;;;;;;;2.30;1.60;;;21.00;50.40;;;-142.21;48.96;112049.66;5053082;28;20221;-72
2022/08/13 04:18:18;;;;;;;3.00;1.60;;;21.00;50.20;;;-142.21;48.58;112049.66;5051863;28;20682;-72
2022/08/13 04:20:52;;;;;;;1.90;1.70;;;20.90;49.40;;;-142.21;48.97;112049.66;5046519;28;20698;-72
2022/08/13 04:23:21;;;;;;;2.87;1.97;;;20.90;49.70;;;-142.21;50.01;112049.66;5055042;28;20226;-72
2022/08/13 04:25:49;;;;;;;1.70;1.60;;;20.90;49.90;;;-142.21;51.15;112049.66;5079423;28;20581;-72
2022/08/13 04:28:21;;;;;;;1.90;1.60;;;20.90;50.70;;;-142.21;51.77;112049.66;5052603;28;20283;-72
2022/08/13 04:30:49;;;;;;;2.53;1.67;;;20.90;50.80;;;-142.21;51.00;112049.66;5050096;28;20608;-71
2022/08/13 04:33:18;;;;;;;2.00;1.90;;;20.90;50.80;;;-142.21;50.83;112049.66;5051202;28;20272;-70
2022/08/13 04:35:47;;;;;;;2.93;1.70;;;20.90;51.00;;;-142.21;51.40;112049.66;5042759;28;20649;-72
2022/08/13 04:38:16;;;;;;;6.23;2.30;;;20.90;50.70;;;-142.21;53.05;112049.66;5043987;28;20252;-72
2022/08/13 04:40:46;;;;;;;5.20;2.20;;;20.90;51.00;;;-142.21;53.32;112049.66;5039235;28;20222;-72
2022/08/13 04:43:17;;;;;;;5.07;2.50;;;20.90;51.30;;;-142.21;54.05;112049.66;5048876;28;20221;-72
2022/08/13 04:45:45;;;;;;;2.43;2.20;;;20.80;51.40;;;-142.21;53.48;112049.66;5028842;28;20214;-72
2022/08/13 04:48:16;;;;;;;4.60;2.00;;;20.80;51.40;;;-142.21;54.17;112049.66;5036774;28;20691;-72
2022/08/13 04:50:46;;;;;;;2.57;2.37;;;20.70;51.70;;;-142.21;53.35;112049.66;5048435;28;20244;-72
2022/08/13 04:53:24;;;;;;;2.00;1.80;;;20.60;51.30;;;-142.21;51.20;112049.66;5042393;28;20222;-72
2022/08/13 04:55:52;;;;;;;3.43;2.00;;;20.60;50.80;;;-142.21;51.81;112049.66;5035705;28;20255;-72
2022/08/13 04:58:20;;;;;;;3.17;2.23;;;20.60;50.40;;;-142.21;53.39;112049.66;5039909;28;20232;-72
2022/08/13 05:00:48;;;;;;;3.40;1.90;;;20.70;51.50;;;-142.21;52.83;112049.66;5037096;28;20225;-71
2022/08/13 05:03:20;;;;;;;2.50;1.77;;;20.70;51.10;;;-142.21;52.55;112049.66;5049909;28;20665;-72
2022/08/13 05:05:51;;;;;;;2.53;1.77;;;20.80;51.20;;;-142.21;53.83;112049.66;5050017;28;20765;-71
2022/08/13 05:08:20;;;;;;;2.67;1.97;;;20.80;51.50;;;-142.21;54.26;112049.66;5052918;28;20226;-72
2022/08/13 05:10:51;;;;;;;2.03;1.83;;;20.80;51.50;;;-142.21;53.39;112049.66;5041067;28;20222;-72
2022/08/13 05:13:25;;;;;;;1.93;1.83;;;20.80;51.40;;;-142.21;52.93;112049.66;5048617;28;20202;-72
2022/08/13 05:15:54;;;;;;;1.50;1.40;;;20.80;51.40;;;-142.21;53.39;112049.66;5052336;28;20230;-72
2022/08/13 05:18:24;;;;;;;2.00;1.90;;;20.90;51.30;;;-142.21;53.93;112049.66;5048442;28;20225;-71
2022/08/13 05:20:53;;;;;;;1.83;1.73;;;20.80;51.50;;;-142.21;53.61;112049.66;5048252;28;20253;-71
2022/08/13 05:23:22;;;;;;;3.70;1.77;;;20.90;51.50;;;-142.21;52.98;112049.66;5037368;28;20232;-72
2022/08/13 05:25:50;;;;;;;1.63;1.53;;;20.90;51.50;;;-142.21;53.18;112049.66;5049846;28;20231;-72
2022/08/13 05:28:19;;;;;;;3.80;1.97;;;20.90;51.40;;;-142.21;51.57;112049.66;5050527;28;20710;-72
2022/08/13 05:30:48;;;;;;;3.87;1.90;;;21.00;51.10;;;-142.21;51.25;112049.66;5044347;28;20221;-72
2022/08/13 05:33:18;;;;;;;3.73;1.70;;;21.10;50.90;;;-142.21;51.16;112049.66;5049681;28;20260;-71
2022/08/13 05:35:50;;;;;;;3.03;1.87;;;21.10;50.70;;;-142.21;51.78;112049.66;5051075;28;20257;-72
2022/08/13 05:38:22;;;;;;;2.03;1.90;;;21.20;51.10;;;-142.21;50.23;112049.66;5047522;28;20288;-72
2022/08/13 05:40:50;;;;;;;2.80;1.70;;;21.30;50.50;;;-142.21;48.93;112049.66;5047454;28;20713;-71
2022/08/13 05:43:21;;;;;;;1.83;1.70;;;21.30;50.00;;;-142.21;48.73;112049.66;5041214;28;20253;-71
2022/08/13 05:45:50;;;;;;;2.50;2.30;;;21.40;50.00;;;-142.21;47.92;112049.66;5012908;28;20237;-71
2022/08/13 05:48:17;;;;;;;3.10;1.50;;;21.50;49.60;;;-142.21;47.45;112049.66;5055352;28;20252;-73
2022/08/13 05:50:46;;;;;;;1.63;1.53;;;21.60;49.40;;;-142.21;46.88;112049.66;5058577;28;20348;-72
2022/08/13 05:53:14;;;;;;;1.80;1.70;;;21.80;49.20;;;-142.21;46.32;112049.66;5043070;28;20209;-71
2022/08/13 05:55:42;;;;;;;1.80;1.70;;;21.80;48.90;;;-142.21;46.27;112049.66;5048868;28;20239;-72
2022/08/13 05:58:12;;;;;;;1.47;1.30;;;21.90;48.80;;;-142.21;46.84;112049.66;5050547;28;20299;-71
2022/08/13 06:03:27;;;;;;;1.77;1.67;;;22.10;49.10;;;-142.21;46.66;112049.66;5039265;28;20355;-73
2022/08/13 06:05:58;;;;;;;3.87;2.00;;;22.10;48.80;;;-142.21;46.45;112049.66;5051478;28;20586;-72
2022/08/13 06:08:29;;;;;;;2.13;1.73;;;22.20;48.80;;;-142.21;46.79;112049.66;5049510;28;20253;-71
2022/08/13 06:10:57;;;;;;;1.73;1.63;;;22.30;48.90;;;-142.21;46.44;112049.66;5049581;28;20194;-71
2022/08/13 06:13:25;;;;;;;1.97;1.80;;;22.30;48.70;;;-142.21;46.22;112049.66;5051375;28;20226;-71
2022/08/13 06:16:00;;;;;;;2.57;2.37;;;22.50;48.70;;;-142.21;46.39;112049.66;5052959;28;20261;-71
2022/08/13 06:18:30;;;;;;;1.60;1.50;;;22.50;48.60;;;-142.21;46.39;112049.66;5052583;28;20225;-71
2022/08/13 06:21:01;;;;;;;2.90;1.80;;;22.70;48.80;;;-142.21;46.88;112049.66;5050708;28;20198;-72
2022/08/13 06:23:32;;;;;;;1.47;1.37;;;22.70;49.00;;;-142.21;45.94;112049.66;5053537;28;20316;-72
2022/08/13 06:26:01;;;;;;;1.87;1.67;;;22.80;48.50;;;-142.21;45.84;112049.66;5050852;28;20317;-71
2022/08/13 06:28:31;;;;;;;1.97;1.87;;;22.90;48.50;;;-142.21;45.71;112049.66;5057860;28;20286;-71
2022/08/13 06:31:03;;;;;;;1.63;1.53;;;23.00;48.40;;;-142.21;45.36;112049.66;5072971;28;20226;-72
2022/08/13 06:33:34;;;;;;;3.13;1.50;;;23.10;48.30;;;-142.21;45.61;112049.66;5060085;28;20306;-71
2022/08/13 06:36:07;;;;;;;1.70;1.60;;;23.20;48.30;;;-142.21;46.13;112049.66;5051033;28;20666;-73
2022/08/13 06:38:37;;;;;;;1.63;1.47;;;23.20;48.50;;;-142.21;45.25;112049.66;5050479;28;20292;-72
2022/08/13 06:41:08;;;;;;;1.80;1.70;;;23.30;48.20;;;-142.21;45.26;112049.66;5051195;28;20727;-72
2022/08/13 06:43:40;;;;;;;1.57;1.47;;;23.40;48.10;;;-142.21;45.46;112049.66;5042695;28;20619;-71
2022/08/13 06:46:08;;;;;;;1.80;1.60;;;23.50;48.20;;;-142.21;44.63;112049.66;5047861;28;20590;-72
2022/08/13 06:48:36;;;;;;;1.40;1.30;;;23.60;48.50;;;-142.21;44.42;112049.66;5039787;28;20230;-74
2022/08/13 06:51:07;;;;;;;2.10;1.47;;;23.60;47.70;;;-142.21;43.97;112049.66;5034388;28;20234;-72
2022/08/13 06:53:36;;;;;;;4.07;2.00;;;23.80;47.60;;;-142.21;43.39;112049.66;5036189;28;20198;-72
2022/08/13 06:56:07;;;;;;;1.90;1.80;;;23.90;47.20;;;-142.21;43.80;112049.66;5050667;28;20732;-71
2022/08/13 06:58:38;;;;;;;2.17;1.50;;;24.00;47.40;;;-142.21;42.26;112049.66;5008388;28;20254;-72
2022/08/13 07:01:07;;;;;;;2.33;1.43;;;24.10;46.70;;;-142.21;41.93;112049.66;5052048;28;20233;-71
2022/08/13 07:03:38;;;;;;;1.70;1.60;;;24.10;46.50;;;-142.21;41.69;112049.66;5044780;28;20205;-72
2022/08/13 07:06:16;;;;;;;2.17;1.33;;;24.30;46.40;;;-142.21;41.67;112049.66;5043006;28;20313;-72
2022/08/13 07:08:46;;;;;;;1.50;1.40;;;24.40;46.40;;;-142.21;41.37;112049.66;5045462;28;20193;-72
2022/08/13 07:11:22;;;;;;;3.07;1.80;;;24.40;46.00;;;-142.21;41.08;112049.66;5041486;28;20296;-72
2022/08/13 07:13:52;;;;;;;1.50;1.37;;;24.50;45.90;;;-142.21;40.98;112049.66;5042074;28;20559;-71
2022/08/13 07:16:22;;;;;;;2.77;1.73;;;24.70;45.70;;;-142.21;40.39;112049.66;5051816;28;20240;-72
2022/08/13 07:18:51;;;;;;;1.77;1.67;;;24.70;45.50;;;-142.21;40.16;112049.66;5046854;28;20225;-71
2022/08/13 07:21:24;;;;;;;1.60;1.50;;;24.80;45.30;;;-142.21;39.75;112049.66;5038264;28;20233;-71
2022/08/13 07:23:54;;;;;;;1.63;1.50;;;24.80;44.80;;;-142.21;39.57;112049.66;5050204;28;20186;-72
2022/08/13 07:26:24;;;;;;;1.70;1.60;;;24.90;44.80;;;-142.21;41.11;112049.66;5044014;28;20213;-72
2022/08/13 07:28:52;;;;;;;1.80;1.70;;;25.10;45.70;;;-142.21;40.81;112049.66;5054974;28;20190;-72
2022/08/13 07:31:26;;;;;;;1.77;1.67;;;25.20;45.50;;;-142.21;39.86;112049.66;5047172;28;20232;-70
2022/08/13 07:33:57;;;;;;;2.13;1.30;;;25.20;45.10;;;-142.21;39.73;112049.66;5049029;28;21928;-72
2022/08/13 07:36:29;;;;;;;1.97;1.60;;;25.30;44.70;;;-142.21;39.73;112049.66;5051832;28;20251;-72
2022/08/13 07:38:57;;;;;;;1.63;1.53;;;25.40;44.70;;;-142.21;39.28;112049.66;5054127;28;20205;-71
2022/08/13 07:41:27;;;;;;;2.40;1.87;;;25.50;44.50;;;-142.21;38.87;112049.66;5054396;28;20567;-73
2022/08/13 07:43:54;;;;;;;2.80;2.00;;;25.60;44.30;;;-142.21;38.64;112049.66;5046436;28;20212;-72
2022/08/13 07:46:21;;;;;;;2.90;1.90;;;25.80;44.00;;;-142.21;38.91;112049.66;5052758;28;20206;-73
2022/08/13 07:48:52;;;;;;;2.00;1.80;;;25.90;44.00;;;-142.21;38.49;112049.66;5053892;28;20237;-72
2022/08/13 07:51:21;;;;;;;1.70;1.60;;;25.90;43.60;;;-142.21;38.23;112049.66;5053108;28;20284;-72
2022/08/13 07:53:54;;;;;;;2.93;1.60;;;26.00;43.50;;;-142.21;38.85;112049.66;5052657;28;20662;-71
2022/08/13 07:56:28;;;;;;;1.73;1.63;;;26.10;43.80;;;-142.21;39.66;112049.66;5051077;28;20213;-71
2022/08/13 07:59:00;;;;;;;1.70;1.60;;;26.30;44.40;;;-142.21;40.18;112049.66;5048262;28;20241;-72
2022/08/13 08:01:27;;;;;;;1.63;1.50;;;26.40;44.70;;;-142.21;40.13;112049.66;5052922;28;20589;-71
2022/08/13 08:03:58;;;;;;;2.57;1.63;;;26.60;45.00;;;-142.21;39.26;112049.66;5052345;28;20317;-72
2022/08/13 08:06:26;;;;;;;1.50;1.40;;;26.70;44.20;;;-142.21;38.54;112049.66;5052431;28;20234;-70
2022/08/13 08:08:55;;;;;;;1.70;1.60;;;26.80;43.80;;;-142.21;38.22;112049.66;5055015;28;20214;-74
2022/08/13 08:14:10;;;;;;;2.77;1.63;;;27.00;43.40;;;-142.21;38.42;112049.66;5035579;28;20330;-72
2022/08/13 08:16:40;;;;;;;1.97;1.50;;;27.00;43.40;;;-142.21;37.67;112049.66;5040336;28;20218;-72
2022/08/13 08:19:08;;;;;;;2.27;1.53;;;27.10;43.10;;;-142.21;37.21;112049.66;5049106;28;20225;-72
2022/08/13 08:21:36;;;;;;;2.90;1.73;;;27.10;42.20;;;-142.21;38.19;112049.66;5038334;28;20199;-72
2022/08/13 08:24:06;;;;;;;1.60;1.50;;;27.20;43.20;;;-142.21;38.08;112049.66;5048177;28;20242;-72
2022/08/13 08:26:36;;;;;;;3.10;1.60;;;27.40;42.80;;;-142.21;37.27;112049.66;5050425;28;20230;-73
2022/08/13 08:29:09;;;;;;;1.87;1.77;;;27.50;42.10;;;-142.21;37.69;112049.66;5055718;28;20209;-73
2022/08/13 08:31:40;;;;;;;1.53;1.43;;;27.60;42.30;;;-142.21;37.87;112049.66;5039367;28;20216;-71
2022/08/13 08:34:09;;;;;;;3.90;1.73;;;27.70;42.50;;;-142.21;37.82;112049.66;5055126;28;20241;-72
2022/08/13 08:36:41;;;;;;;2.80;1.90;;;27.80;42.50;;;-142.21;36.26;112049.66;5041962;28;20284;-72
2022/08/13 08:44:50;;;;;;;2.03;1.83;;;28.10;42.00;;;-142.21;34.98;112049.66;5052187;28;20206;-71
2022/08/13 08:47:18;;;;;;;1.73;1.43;;;28.20;40.40;;;-142.21;35.75;112049.66;5047605;28;20199;-72
2022/08/13 08:49:45;;;;;;;1.60;1.50;;;28.20;40.30;;;-142.21;36.88;112049.66;5037326;28;20233;-72
2022/08/13 08:52:13;;;;;;;2.03;1.80;;;28.30;41.30;;;-142.21;36.24;112049.66;5035057;28;20243;-72
2022/08/13 08:54:45;;;;;;;3.80;1.87;;;28.40;41.30;;;-142.21;35.78;112049.66;5044186;28;20646;-72
2022/08/13 08:57:13;;;;;;;1.80;1.40;;;28.50;40.90;;;-142.21;35.17;112049.66;5066594;28;20315;-72
2022/08/13 08:59:41;;;;;;;2.40;1.63;;;28.60;40.50;;;-142.21;36.69;112049.66;5056898;28;20219;-73
2022/08/13 09:02:20;;;;;;;2.00;1.80;;;28.70;41.30;;;-142.21;36.13;112049.66;5054494;28;20248;-72
2022/08/13 09:04:54;;;;;;;2.37;1.40;;;28.90;41.20;;;-142.21;34.68;112049.66;5042601;28;20315;-72
2022/08/13 09:07:25;;;;;;;1.40;1.30;;;29.00;40.10;;;-142.21;34.91;112049.66;5034819;28;20219;-73
2022/08/13 09:09:59;;;;;;;3.33;1.50;;;29.20;40.30;;;-142.21;33.88;112049.66;5037840;28;20200;-72
2022/08/13 09:12:28;;;;;;;1.73;1.63;;;29.30;39.30;;;-142.21;33.57;112049.66;5042890;28;20703;-72
2022/08/13 09:14:57;;;;;;;4.20;2.00;;;29.30;38.70;;;-142.21;34.25;112049.66;5053532;28;20697;-72
2022/08/13 09:17:27;;;;;;;1.93;1.63;;;29.50;39.40;;;-142.21;34.50;112049.66;5037585;28;20237;-71
2022/08/13 09:19:54;;;;;;;1.70;1.60;;;29.60;39.40;;;-142.21;33.33;112049.66;5033577;28;20255;-73
2022/08/13 09:22:23;;;;;;;1.50;1.37;;;29.70;38.60;;;-142.21;32.90;112049.66;5044470;28;20251;-71
2022/08/13 09:24:56;;;;;;;1.50;1.40;;;29.70;37.80;;;-142.21;32.92;112049.66;5033744;28;20252;-73
2022/08/13 09:27:26;;;;;;;1.90;1.70;;;29.90;38.00;;;-142.21;33.97;112049.66;5060048;28;20197;-71
2022/08/13 09:29:53;;;;;;;5.00;1.97;;;30.00;38.60;;;-142.21;33.19;112049.66;5047097;28;20626;-71
2022/08/13 09:32:21;;;;;;;1.60;1.50;;;30.20;38.30;;;-142.21;32.52;112049.66;5037883;28;20203;-74
2022/08/13 09:34:48;;;;;;;2.07;1.60;;;30.20;37.50;;;-142.21;31.68;112049.66;5050244;28;20198;-71
2022/08/13 09:37:17;;;;;;;2.37;2.10;;;30.30;36.90;;;-142.21;31.94;112049.66;5042438;28;20668;-72
2022/08/13 09:39:51;;;;;;;2.27;2.07;;;30.40;36.80;;;-142.21;32.17;112049.66;5040778;28;20226;-72
2022/08/13 09:42:28;;;;;;;2.40;1.77;;;30.40;37.40;;;-142.21;31.98;112049.66;5049262;28;20259;-72
2022/08/13 09:44:58;;;;;;;2.20;1.50;;;30.60;36.70;;;-142.21;30.79;112049.66;5053316;28;20224;-72
2022/08/13 09:47:26;;;;;;;1.97;1.70;;;30.70;35.60;;;-142.21;32.12;112049.66;5043281;28;20201;-73
2022/08/13 09:49:55;;;;;;;1.97;1.43;;;30.80;36.50;;;-142.21;31.72;112049.66;5046123;28;20539;-71
2022/08/13 09:52:22;;;;;;;4.00;2.10;;;30.90;36.40;;;-142.21;31.95;112049.66;5053994;28;20279;-71
2022/08/13 09:54:50;;;;;;;1.80;1.70;;;31.00;36.50;;;-142.21;31.09;112049.66;5051034;28;20201;-73
2022/08/13 09:57:21;;;;;;;1.70;1.60;;;31.20;36.00;;;-142.21;31.79;112049.66;5053177;28;20218;-72
2022/08/13 09:59:49;;;;;;;1.70;1.60;;;31.20;36.20;;;-142.21;31.49;112049.66;5047803;28;20252;-74
2022/08/13 10:02:17;;;;;;;1.70;1.60;;;31.30;35.90;;;-142.21;29.80;112049.66;5053788;28;20210;-73
2022/08/13 10:04:45;;;;;;;1.70;1.60;;;31.30;34.40;;;-142.21;30.52;112049.66;5050908;28;20316;-71
2022/08/13 10:07:14;;;;;;;2.53;1.70;;;31.30;34.40;;;-142.21;30.94;112049.66;5052161;28;20190;-73
2022/08/13 10:09:41;;;;;;;1.57;1.40;;;31.40;34.90;;;-142.21;30.24;112049.66;5038667;28;20213;-72
2022/08/13 10:12:11;;;;;;;1.70;1.60;;;31.50;34.40;;;-142.21;30.15;112049.66;5057933;28;20256;-72
2022/08/13 10:14:40;;;;;;;2.17;1.87;;;31.60;33.90;;;-142.21;30.05;112049.66;5052473;28;20244;-71
2022/08/13 10:17:08;;;;;;;1.60;1.50;;;31.70;34.10;;;-142.21;30.09;112049.66;5057286;28;20235;-72
2022/08/13 10:19:35;;;;;;;1.70;1.60;;;31.90;34.10;;;-142.21;30.42;112049.66;5066536;28;20221;-73
2022/08/13 10:22:02;;;;;;;1.50;1.40;;;32.00;34.20;;;-142.21;29.93;112049.66;5053952;28;20293;-73
2022/08/13 10:24:30;;;;;;;3.00;1.60;;;32.10;34.00;;;-142.21;29.57;112049.66;5045463;28;20293;-72
2022/08/13 10:26:57;;;;;;;1.70;1.60;;;32.20;33.60;;;-142.21;29.48;112049.66;5045352;28;20206;-72
2022/08/13 10:29:24;;;;;;;1.67;1.50;;;32.30;33.10;;;-142.21;28.65;112049.66;5052863;28;20239;-72
2022/08/13 10:31:53;;;;;;;1.77;1.60;;;32.40;32.50;;;-142.21;29.44;112049.66;5051520;28;20252;-72
2022/08/13 10:34:22;;;;;;;2.53;1.60;;;32.50;33.30;;;-142.21;28.72;112049.66;5050626;28;20293;-72
2022/08/13 10:36:50;;;;;;;2.20;1.37;;;32.50;32.40;;;-142.21;28.83;112049.66;5051390;28;20607;-72